Terminal Aerodrome Forecast
Issued by NWS St Louis, MO

Home | Current Version | Previous Version | Graphics & Text | Print | Product List | Glossary On
Versions: 1 2 3 4 5 6 7 8 9 10 11 12 13 14 15 16 17 18 19 20 21 22 23 24 25 26 27 28 29
000
FTUS43 KLSX 290904 AAB
TAFSTL
TAF AMD
KSTL 290904Z 2909/3012 36006KT P6SM VCTS BKN050CB
      TEMPO 2909/2910 5SM SHRA BKN045
     FM291200 09005KT P6SM BKN100
     FM291500 21013G21KT P6SM SCT040 BKN250
     FM300100 18008KT P6SM SCT200
     FM300700 19007KT P6SM BKN070=

USA.gov is the U.S. government's official web portal to all federal, state and local government web resources and services.